Time;durP1;ratioP1;P1;durP2;ratioP2;P2;SDS_P1;SDS_P2;PMS_P1;PMS_P2;Temp;Humidity;BMP_temperature;BMP_pressure;BME280_temperature;BME280_humidity;BME280_pressure;Samples;Min_cycle;Max_cycle;Signal;HPM_P1;HPM_P2
2023/09/26 00:00:15;;;;;;;9.23;7.60;;;17.10;99.90;;;;;;5012394;28;20378;-61
2023/09/26 00:02:42;;;;;;;11.07;8.05;;;17.00;99.90;;;;;;4996348;28;20046;-61
2023/09/26 00:05:08;;;;;;;10.55;8.52;;;16.90;99.90;;;;;;4991883;28;20628;-62
2023/09/26 00:07:36;;;;;;;10.23;8.23;;;16.90;99.90;;;;;;4991578;28;20118;-60
2023/09/26 00:10:07;;;;;;;11.70;9.02;;;16.80;99.90;;;;;;4974822;28;20043;-61
2023/09/26 00:12:33;;;;;;;10.18;8.55;;;16.70;99.90;;;;;;5006421;28;20262;-61
2023/09/26 00:15:00;;;;;;;10.57;8.48;;;16.60;99.90;;;;;;5011448;28;20065;-61
2023/09/26 00:17:27;;;;;;;10.88;8.68;;;16.50;99.90;;;;;;5011004;28;20054;-61
2023/09/26 00:19:53;;;;;;;11.52;8.45;;;16.50;99.90;;;;;;5011186;28;20157;-61
2023/09/26 00:22:20;;;;;;;9.55;8.63;;;16.40;99.90;;;;;;4998735;28;20061;-61
2023/09/26 00:24:46;;;;;;;8.63;7.82;;;16.50;99.90;;;;;;4991890;28;20050;-62
2023/09/26 00:27:13;;;;;;;8.77;7.88;;;16.40;99.90;;;;;;4991732;28;20109;-60
2023/09/26 00:29:40;;;;;;;10.02;8.98;;;16.40;99.90;;;;;;4991336;28;20069;-61
2023/09/26 00:32:07;;;;;;;10.32;8.77;;;16.40;99.90;;;;;;5001380;28;20054;-61
2023/09/26 00:34:33;;;;;;;8.90;8.05;;;16.30;99.90;;;;;;5011011;28;20050;-60
2023/09/26 00:36:59;;;;;;;11.05;9.07;;;16.20;99.90;;;;;;4997435;28;20062;-61
2023/09/26 00:39:25;;;;;;;10.02;9.02;;;16.10;99.90;;;;;;5010038;28;20245;-61
2023/09/26 00:41:52;;;;;;;10.48;9.20;;;16.10;99.90;;;;;;5010512;28;20049;-61
2023/09/26 00:44:18;;;;;;;10.10;9.15;;;16.10;99.90;;;;;;5010830;28;20049;-61
2023/09/26 00:46:45;;;;;;;10.52;9.35;;;16.00;99.90;;;;;;5011137;28;20088;-60
2023/09/26 00:49:12;;;;;;;9.57;8.57;;;15.90;99.90;;;;;;5010615;28;20046;-61
2023/09/26 00:51:38;;;;;;;10.05;9.05;;;16.00;99.90;;;;;;5010559;28;20049;-61
2023/09/26 00:54:09;;;;;;;9.70;8.60;;;15.90;99.90;;;;;;5010848;28;20060;-61
2023/09/26 00:56:38;;;;;;;9.68;8.75;;;15.90;99.90;;;;;;5010773;28;20083;-61
2023/09/26 00:59:05;;;;;;;9.38;7.90;;;15.80;99.90;;;;;;5009965;28;20418;-61
2023/09/26 01:01:34;;;;;;;9.48;8.57;;;15.90;99.90;;;;;;5010777;28;20093;-61
2023/09/26 01:04:01;;;;;;;9.07;8.18;;;15.70;99.90;;;;;;5010535;28;20168;-61
2023/09/26 01:06:27;;;;;;;9.65;8.23;;;15.80;99.90;;;;;;5010430;28;20371;-61
2023/09/26 01:08:53;;;;;;;10.98;9.20;;;15.80;99.90;;;;;;5009996;28;20061;-61
2023/09/26 01:11:20;;;;;;;9.90;9.00;;;15.80;99.90;;;;;;4993098;28;20050;-62
2023/09/26 01:13:46;;;;;;;11.70;9.20;;;15.80;99.90;;;;;;4993506;28;20113;-61
2023/09/26 01:16:15;;;;;;;10.30;9.35;;;15.70;99.90;;;;;;5010378;28;20079;-60
2023/09/26 01:18:41;;;;;;;11.60;9.13;;;15.70;99.90;;;;;;5009855;28;20077;-62
2023/09/26 01:21:08;;;;;;;10.32;9.25;;;15.60;99.90;;;;;;5010388;28;20060;-61
2023/09/26 01:23:36;;;;;;;10.23;8.68;;;15.60;99.90;;;;;;5010647;28;20046;-61
2023/09/26 01:26:03;;;;;;;9.13;7.97;;;15.60;99.90;;;;;;5010123;28;20046;-61
2023/09/26 01:28:29;;;;;;;9.90;8.90;;;15.60;99.90;;;;;;5009788;28;20049;-61
2023/09/26 01:30:55;;;;;;;9.85;8.85;;;15.60;99.90;;;;;;5010129;28;20057;-61
2023/09/26 01:33:22;;;;;;;10.60;9.45;;;15.60;99.90;;;;;;5010347;28;20050;-61
2023/09/26 01:35:51;;;;;;;10.38;8.10;;;15.70;99.90;;;;;;5010659;28;20072;-61
2023/09/26 01:38:21;;;;;;;11.85;9.10;;;15.70;99.90;;;;;;5009916;28;20054;-62
2023/09/26 01:40:48;;;;;;;8.90;8.02;;;15.70;99.90;;;;;;5010073;28;20090;-62
2023/09/26 01:43:14;;;;;;;10.07;8.23;;;15.70;99.90;;;;;;4992037;28;20112;-61
2023/09/26 01:45:40;;;;;;;9.90;8.60;;;15.70;99.90;;;;;;5010164;28;20053;-62
2023/09/26 01:48:09;;;;;;;10.00;8.30;;;15.80;99.90;;;;;;5009662;28;20046;-60
2023/09/26 01:50:35;;;;;;;9.65;8.18;;;15.80;99.90;;;;;;4992148;28;20115;-62
2023/09/26 01:53:03;;;;;;;8.65;7.85;;;15.80;99.90;;;;;;4992352;28;20050;-62
2023/09/26 01:55:29;;;;;;;10.18;8.15;;;15.80;99.90;;;;;;5009956;28;20049;-62
2023/09/26 01:57:57;;;;;;;8.25;7.10;;;15.90;99.90;;;;;;4992101;28;20443;-61
2023/09/26 02:00:23;;;;;;;11.13;8.70;;;15.90;99.90;;;;;;5010233;28;20075;-61
2023/09/26 02:02:51;;;;;;;8.93;8.02;;;15.90;99.90;;;;;;5009504;28;20053;-61
2023/09/26 02:05:19;;;;;;;9.35;8.38;;;15.90;99.90;;;;;;5009962;28;20046;-61
2023/09/26 02:07:46;;;;;;;8.77;7.88;;;15.90;99.90;;;;;;5009841;28;20045;-61
2023/09/26 02:10:14;;;;;;;11.52;9.13;;;15.90;99.90;;;;;;5009723;28;20373;-61
2023/09/26 02:12:48;;;;;;;10.00;8.43;;;15.90;99.90;;;;;;4992130;28;20502;-61
2023/09/26 02:15:15;;;;;;;9.18;8.02;;;15.90;99.90;;;;;;5009577;28;20465;-61
2023/09/26 02:17:42;;;;;;;9.52;8.57;;;15.90;99.90;;;;;;5009329;28;20141;-61
2023/09/26 02:20:12;;;;;;;11.63;9.00;;;15.90;99.90;;;;;;5009603;28;20046;-61
2023/09/26 02:22:43;;;;;;;10.88;9.13;;;15.90;99.90;;;;;;5009284;28;20057;-62
2023/09/26 02:25:10;;;;;;;9.93;8.48;;;15.80;99.90;;;;;;5009446;28;20104;-61
2023/09/26 02:27:51;;;;;;;10.55;8.07;;;15.80;99.90;;;;;;5009321;28;20141;-61
2023/09/26 02:30:20;;;;;;;9.77;8.88;;;15.70;99.90;;;;;;4992293;28;20058;-62
2023/09/26 02:32:46;;;;;;;9.90;8.75;;;15.70;99.90;;;;;;5009570;28;20148;-61
2023/09/26 02:35:15;;;;;;;9.45;8.55;;;15.70;99.90;;;;;;4992051;28;20108;-61
2023/09/26 02:37:42;;;;;;;11.65;9.15;;;15.70;99.90;;;;;;4991073;28;20058;-61
2023/09/26 02:40:10;;;;;;;10.32;9.23;;;15.60;99.90;;;;;;5009301;28;20050;-61
2023/09/26 02:42:41;;;;;;;9.57;8.68;;;15.60;99.90;;;;;;5008777;28;20050;-62
2023/09/26 02:45:07;;;;;;;10.75;8.82;;;15.50;99.90;;;;;;5009446;28;20081;-61
2023/09/26 02:47:34;;;;;;;10.73;9.68;;;15.50;99.90;;;;;;5008808;28;20072;-61
2023/09/26 02:50:00;;;;;;;10.95;9.77;;;15.50;99.90;;;;;;5009302;28;20046;-61
2023/09/26 02:52:26;;;;;;;10.23;8.25;;;15.40;99.90;;;;;;5008669;28;20421;-62
2023/09/26 02:54:53;;;;;;;10.75;9.65;;;15.50;99.90;;;;;;5012241;28;20046;-61
2023/09/26 02:57:19;;;;;;;9.70;8.77;;;15.40;99.90;;;;;;5012418;28;20466;-60
2023/09/26 02:59:52;;;;;;;10.25;9.35;;;15.30;99.90;;;;;;5013298;28;20057;-61
2023/09/26 03:02:18;;;;;;;10.02;8.20;;;15.30;99.90;;;;;;5012431;28;20461;-61
2023/09/26 03:04:50;;;;;;;10.50;9.50;;;15.20;99.90;;;;;;5012968;28;20050;-61
2023/09/26 03:07:16;;;;;;;10.13;9.13;;;15.20;99.90;;;;;;5012615;28;20552;-61
2023/09/26 03:09:43;;;;;;;11.15;9.95;;;15.10;99.90;;;;;;5012854;28;20061;-61
2023/09/26 03:12:10;;;;;;;11.65;10.45;;;15.10;99.90;;;;;;5012265;28;20076;-61
2023/09/26 03:14:36;;;;;;;11.57;10.38;;;15.00;99.90;;;;;;5012730;28;20046;-61
2023/09/26 03:17:05;;;;;;;14.30;9.80;;;15.00;99.90;;;;;;4994919;28;20391;-61
2023/09/26 03:19:31;;;;;;;12.52;11.32;;;14.90;99.90;;;;;;5012711;28;20054;-61
2023/09/26 03:21:58;;;;;;;11.77;10.18;;;14.90;99.90;;;;;;5012046;28;20383;-61
2023/09/26 03:24:24;;;;;;;12.52;11.27;;;14.80;99.90;;;;;;5012608;28;20057;-61
2023/09/26 03:26:50;;;;;;;14.10;11.32;;;14.70;99.90;;;;;;5012289;28;20046;-61
2023/09/26 03:29:16;;;;;;;12.68;11.35;;;14.70;99.90;;;;;;5012659;28;20080;-61
2023/09/26 03:31:44;;;;;;;13.30;11.52;;;14.70;99.90;;;;;;5012302;28;20117;-61
2023/09/26 03:34:11;;;;;;;12.88;11.25;;;14.60;99.90;;;;;;5012440;28;20046;-61
2023/09/26 03:36:37;;;;;;;13.30;11.95;;;14.60;99.90;;;;;;5012718;28;20058;-60
2023/09/26 03:39:03;;;;;;;13.43;11.93;;;14.60;99.90;;;;;;5011695;28;20439;-61
2023/09/26 03:41:33;;;;;;;12.25;10.65;;;14.60;99.90;;;;;;5011973;28;20108;-61
2023/09/26 03:43:59;;;;;;;13.32;12.05;;;14.50;99.90;;;;;;5012106;28;20131;-61
2023/09/26 03:46:25;;;;;;;12.57;11.18;;;14.50;99.90;;;;;;5012142;28;20190;-60
2023/09/26 03:48:52;;;;;;;13.27;11.95;;;14.40;99.90;;;;;;5011500;28;20367;-61
2023/09/26 03:51:18;;;;;;;13.80;11.70;;;14.50;99.90;;;;;;5011841;28;20055;-62
2023/09/26 03:53:44;;;;;;;13.38;11.85;;;14.50;99.90;;;;;;5012325;28;20060;-61
2023/09/26 03:56:11;;;;;;;13.93;12.52;;;14.40;99.90;;;;;;5011739;28;20471;-61
2023/09/26 03:58:37;;;;;;;13.95;12.48;;;14.40;99.90;;;;;;5011484;28;20053;-60
2023/09/26 04:01:12;;;;;;;15.63;12.98;;;14.40;99.90;;;;;;4994744;28;20063;-61
2023/09/26 04:03:39;;;;;;;14.88;12.98;;;14.30;99.90;;;;;;4992517;28;20097;-61
2023/09/26 04:06:07;;;;;;;16.63;13.48;;;14.20;99.90;;;;;;4991353;28;20455;-61
2023/09/26 04:08:33;;;;;;;15.32;12.45;;;14.20;99.90;;;;;;4991917;28;20065;-61
2023/09/26 04:10:59;;;;;;;14.23;12.82;;;14.20;99.90;;;;;;4992177;28;20054;-61
2023/09/26 04:13:26;;;;;;;13.85;12.43;;;14.20;99.90;;;;;;5011083;28;20069;-61
2023/09/26 04:15:55;;;;;;;15.20;13.52;;;14.10;99.90;;;;;;5011893;28;20120;-62
2023/09/26 04:18:22;;;;;;;14.80;13.13;;;14.10;99.90;;;;;;5011749;28;20050;-62
2023/09/26 04:20:50;;;;;;;14.40;12.90;;;14.00;99.90;;;;;;5011521;28;20398;-61
2023/09/26 04:23:17;;;;;;;14.10;12.73;;;13.90;99.90;;;;;;5011373;28;20066;-61
2023/09/26 04:25:44;;;;;;;14.35;12.88;;;14.00;99.90;;;;;;5011748;28;20100;-61
2023/09/26 04:28:10;;;;;;;15.13;13.60;;;13.90;99.90;;;;;;5010923;28;20104;-60
2023/09/26 04:30:39;;;;;;;15.73;14.20;;;13.90;99.90;;;;;;5011559;28;20046;-60
2023/09/26 04:33:07;;;;;;;14.52;13.02;;;13.80;99.90;;;;;;5011449;28;20124;-60
2023/09/26 04:35:35;;;;;;;15.38;13.77;;;13.80;99.90;;;;;;5011528;28;20057;-62
2023/09/26 04:38:01;;;;;;;14.88;13.30;;;13.80;99.90;;;;;;5010493;28;20069;-61
2023/09/26 04:40:28;;;;;;;14.82;12.98;;;13.80;99.90;;;;;;4994336;28;20057;-61
2023/09/26 04:43:00;;;;;;;14.90;13.13;;;13.70;99.90;;;;;;5010623;28;20056;-61
2023/09/26 04:45:31;;;;;;;13.93;12.60;;;13.60;99.90;;;;;;5010375;28;20283;-60
2023/09/26 04:48:01;;;;;;;15.40;13.80;;;13.70;99.90;;;;;;5010269;28;20057;-61
2023/09/26 04:50:28;;;;;;;14.25;12.75;;;13.70;99.90;;;;;;5010427;28;20056;-61
2023/09/26 04:52:55;;;;;;;16.98;13.63;;;13.60;99.90;;;;;;4993152;28;20069;-61
2023/09/26 04:55:22;;;;;;;15.38;13.57;;;13.70;99.90;;;;;;4992220;28;20050;-61
2023/09/26 04:57:48;;;;;;;16.80;13.98;;;13.60;99.90;;;;;;5009789;28;20081;-61
2023/09/26 05:00:17;;;;;;;15.10;13.25;;;13.60;99.90;;;;;;5010171;28;20487;-60
2023/09/26 05:02:44;;;;;;;15.70;13.35;;;13.60;99.90;;;;;;4992529;28;20116;-61
2023/09/26 05:05:12;;;;;;;14.98;13.38;;;13.60;99.90;;;;;;5010605;28;20046;-61
2023/09/26 05:07:41;;;;;;;15.57;13.98;;;13.50;99.90;;;;;;4990812;28;20515;-61
2023/09/26 05:10:08;;;;;;;15.38;13.45;;;13.50;99.90;;;;;;4991449;28;20106;-60
2023/09/26 05:12:37;;;;;;;15.90;13.88;;;13.50;99.90;;;;;;5009954;28;20053;-62
2023/09/26 05:15:05;;;;;;;18.05;13.98;;;13.50;99.90;;;;;;5010576;28;20097;-61
2023/09/26 05:17:32;;;;;;;15.07;13.60;;;13.50;99.90;;;;;;5008657;28;20403;-61
2023/09/26 05:19:58;;;;;;;15.15;13.55;;;13.40;99.90;;;;;;5009560;28;20061;-61
2023/09/26 05:22:25;;;;;;;15.02;13.18;;;13.40;99.90;;;;;;5009605;28;20053;-61
2023/09/26 05:24:51;;;;;;;15.27;13.68;;;13.40;99.90;;;;;;5009958;28;20046;-61
2023/09/26 05:27:17;;;;;;;15.80;14.20;;;13.40;99.90;;;;;;5008996;28;20042;-60
2023/09/26 05:29:43;;;;;;;15.98;14.32;;;13.40;99.90;;;;;;5009134;28;20046;-61
2023/09/26 05:32:09;;;;;;;16.50;14.07;;;13.40;99.90;;;;;;5009971;28;20042;-61
2023/09/26 05:34:36;;;;;;;16.10;14.35;;;13.50;99.90;;;;;;5009306;28;20108;-61
2023/09/26 05:37:02;;;;;;;16.35;14.10;;;13.40;99.90;;;;;;5009181;28;20050;-61
2023/09/26 05:39:28;;;;;;;15.00;13.50;;;13.40;99.90;;;;;;5009504;28;20054;-60
2023/09/26 05:41:54;;;;;;;15.50;13.90;;;13.40;99.90;;;;;;5009333;28;20046;-61
2023/09/26 05:44:21;;;;;;;15.07;13.57;;;13.40;99.90;;;;;;5009931;28;20147;-61
2023/09/26 05:46:47;;;;;;;17.33;13.82;;;13.50;99.90;;;;;;5009587;28;20050;-61
2023/09/26 05:49:13;;;;;;;15.80;14.10;;;13.40;99.90;;;;;;5009202;28;20106;-61
2023/09/26 05:51:40;;;;;;;15.85;14.38;;;13.40;99.90;;;;;;5009889;28;20038;-60
2023/09/26 05:54:06;;;;;;;16.38;13.98;;;13.40;99.90;;;;;;5010460;28;20053;-61
2023/09/26 05:56:32;;;;;;;15.68;14.05;;;13.40;99.90;;;;;;5009744;28;20455;-61
2023/09/26 05:58:58;;;;;;;15.43;13.82;;;13.40;99.90;;;;;;5009484;28;20072;-61
2023/09/26 06:01:24;;;;;;;14.60;12.80;;;13.40;99.90;;;;;;5009990;28;20054;-61
2023/09/26 06:03:51;;;;;;;15.52;13.93;;;13.40;99.90;;;;;;5010352;28;20455;-61
2023/09/26 06:06:17;;;;;;;15.45;13.73;;;13.40;99.90;;;;;;5009820;28;20050;-61
2023/09/26 06:08:44;;;;;;;15.98;14.27;;;13.40;99.90;;;;;;5009538;28;20105;-61
2023/09/26 06:11:11;;;;;;;15.80;14.25;;;13.40;99.90;;;;;;5009861;28;20067;-61
2023/09/26 06:13:39;;;;;;;15.25;12.68;;;13.40;99.90;;;;;;4990264;28;20307;-60
2023/09/26 06:16:06;;;;;;;15.65;13.80;;;13.40;99.90;;;;;;4990408;28;20050;-61
2023/09/26 06:18:32;;;;;;;15.32;13.75;;;13.40;99.90;;;;;;4989494;28;20468;-60
2023/09/26 06:21:03;;;;;;;14.45;13.05;;;13.50;99.90;;;;;;4973038;28;20062;-60
2023/09/26 06:23:31;;;;;;;17.23;13.63;;;13.50;99.90;;;;;;5009260;28;20463;-62
2023/09/26 06:25:59;;;;;;;15.07;13.20;;;13.40;99.90;;;;;;5009541;28;20049;-62
2023/09/26 06:28:26;;;;;;;17.33;13.93;;;13.50;99.90;;;;;;5009608;28;20452;-61
2023/09/26 06:30:52;;;;;;;15.25;12.75;;;13.60;99.90;;;;;;4995813;28;20042;-61
2023/09/26 06:33:18;;;;;;;13.70;12.35;;;13.50;99.90;;;;;;5007111;28;20098;-61
2023/09/26 06:35:44;;;;;;;15.13;12.68;;;13.60;99.90;;;;;;4996230;28;20053;-61
2023/09/26 06:38:11;;;;;;;14.63;13.05;;;13.70;99.90;;;;;;5013261;28;20089;-62
2023/09/26 06:40:39;;;;;;;13.75;12.32;;;13.80;99.90;;;;;;5012946;28;20046;-61
2023/09/26 06:43:05;;;;;;;14.30;12.82;;;13.80;99.90;;;;;;5013037;28;20041;-62
2023/09/26 06:45:31;;;;;;;13.57;12.27;;;13.90;99.90;;;;;;5013619;28;20143;-60
2023/09/26 06:47:58;;;;;;;16.25;12.95;;;14.00;99.90;;;;;;5013362;28;20054;-62
2023/09/26 06:50:24;;;;;;;14.55;12.95;;;14.10;99.90;;;;;;5012723;28;20045;-62
2023/09/26 06:52:51;;;;;;;14.93;13.43;;;14.10;99.90;;;;;;5006964;28;20101;-61
2023/09/26 06:55:17;;;;;;;15.10;12.95;;;14.20;99.90;;;;;;5013700;28;20061;-60
2023/09/26 06:57:46;;;;;;;13.50;11.65;;;14.30;99.90;;;;;;5013268;28;20320;-61
2023/09/26 07:00:16;;;;;;;13.63;12.23;;;14.40;99.90;;;;;;4995708;28;20060;-60
2023/09/26 07:02:43;;;;;;;13.80;12.40;;;14.40;99.90;;;;;;5013267;28;20050;-61
2023/09/26 07:05:09;;;;;;;14.88;12.77;;;14.40;99.90;;;;;;4995636;28;20145;-60
2023/09/26 07:07:36;;;;;;;14.70;12.10;;;14.60;99.90;;;;;;5013247;28;20127;-61
2023/09/26 07:10:03;;;;;;;14.70;12.52;;;14.60;99.90;;;;;;5012876;28;20113;-61
2023/09/26 07:12:30;;;;;;;14.35;12.88;;;14.60;99.90;;;;;;5006605;28;20049;-62
2023/09/26 07:14:56;;;;;;;13.30;11.90;;;14.80;99.90;;;;;;5013116;28;20104;-61
2023/09/26 07:17:23;;;;;;;13.70;12.15;;;14.90;99.90;;;;;;5012961;28;20061;-61
2023/09/26 07:19:50;;;;;;;14.25;11.88;;;15.00;99.90;;;;;;5012571;28;20328;-61
2023/09/26 07:22:16;;;;;;;13.18;11.85;;;15.10;99.90;;;;;;5013143;28;20042;-61
2023/09/26 07:24:42;;;;;;;14.35;12.88;;;15.20;99.90;;;;;;5012897;28;20038;-61
2023/09/26 07:27:09;;;;;;;14.05;12.27;;;15.30;99.90;;;;;;5012535;28;20065;-61
2023/09/26 07:29:35;;;;;;;12.90;11.55;;;15.40;99.90;;;;;;5012095;28;20061;-62
2023/09/26 07:32:02;;;;;;;13.85;12.45;;;15.60;99.90;;;;;;5006577;28;20050;-61
2023/09/26 07:34:28;;;;;;;15.10;11.23;;;15.80;99.90;;;;;;5012767;28;20050;-61
2023/09/26 07:36:55;;;;;;;13.20;11.68;;;16.00;99.90;;;;;;5012609;28;20049;-62
2023/09/26 07:39:21;;;;;;;14.48;11.20;;;16.20;99.90;;;;;;4993981;28;20050;-62
2023/09/26 07:41:48;;;;;;;12.68;11.45;;;16.20;99.90;;;;;;5007993;28;20042;-61
2023/09/26 07:44:17;;;;;;;12.70;11.38;;;16.30;99.90;;;;;;4992842;28;20093;-61
2023/09/26 07:46:43;;;;;;;13.40;11.23;;;16.30;99.90;;;;;;4993126;28;20459;-61
2023/09/26 07:49:10;;;;;;;12.90;11.38;;;16.40;99.90;;;;;;4992307;28;20050;-61
2023/09/26 07:51:36;;;;;;;12.77;11.15;;;16.40;99.90;;;;;;4994929;28;20284;-62
2023/09/26 07:54:04;;;;;;;12.30;10.93;;;16.40;99.90;;;;;;5012565;28;20084;-61
2023/09/26 07:56:30;;;;;;;12.45;10.32;;;16.50;99.90;;;;;;5012303;28;20355;-61
2023/09/26 07:58:56;;;;;;;12.20;10.75;;;16.50;99.90;;;;;;5011420;28;20176;-62
2023/09/26 08:01:22;;;;;;;12.43;11.10;;;16.50;99.90;;;;;;5011741;28;20045;-62
2023/09/26 08:03:49;;;;;;;13.20;10.77;;;16.60;99.90;;;;;;4992385;28;20419;-62
2023/09/26 08:06:16;;;;;;;11.68;10.52;;;16.60;99.90;;;;;;4992447;28;20046;-60
2023/09/26 08:08:42;;;;;;;13.50;10.70;;;16.70;99.90;;;;;;4974938;28;20046;-61
2023/09/26 08:11:11;;;;;;;12.52;11.18;;;16.80;99.90;;;;;;4992158;28;20050;-61
2023/09/26 08:13:39;;;;;;;12.18;10.95;;;16.80;99.90;;;;;;4993180;28;20049;-61
2023/09/26 08:16:05;;;;;;;11.93;10.73;;;16.80;99.90;;;;;;4994396;28;20112;-62
2023/09/26 08:18:32;;;;;;;13.02;11.57;;;16.90;99.90;;;;;;5011640;28;20046;-61
2023/09/26 08:20:58;;;;;;;12.65;11.38;;;16.90;99.90;;;;;;5011945;28;20057;-62
2023/09/26 08:23:25;;;;;;;16.30;11.30;;;16.90;99.90;;;;;;4994363;28;20062;-62
2023/09/26 08:25:56;;;;;;;13.38;11.05;;;16.90;99.90;;;;;;4992167;28;20050;-62
2023/09/26 08:28:22;;;;;;;11.85;10.65;;;17.00;99.90;;;;;;4991397;28;20046;-61
2023/09/26 08:30:49;;;;;;;12.07;10.80;;;17.00;99.90;;;;;;4991642;28;20475;-61
2023/09/26 08:33:15;;;;;;;12.45;11.05;;;17.00;99.90;;;;;;5007230;28;20049;-62
2023/09/26 08:35:41;;;;;;;13.43;12.13;;;17.20;99.90;;;;;;5011275;28;20049;-62
2023/09/26 08:38:08;;;;;;;13.00;10.35;;;17.10;99.90;;;;;;5009775;28;20367;-62
2023/09/26 08:40:34;;;;;;;13.20;10.85;;;17.20;99.90;;;;;;5011483;28;20146;-60
2023/09/26 08:43:04;;;;;;;14.13;11.93;;;17.20;99.90;;;;;;4997331;28;20054;-61
2023/09/26 08:45:32;;;;;;;12.20;10.50;;;17.20;99.90;;;;;;4991665;28;20389;-61
2023/09/26 08:47:58;;;;;;;13.13;11.68;;;17.30;99.90;;;;;;4991857;28;20051;-62
2023/09/26 08:50:25;;;;;;;13.23;11.77;;;17.30;99.90;;;;;;4990989;28;20050;-62
2023/09/26 08:52:52;;;;;;;13.18;11.88;;;17.30;99.90;;;;;;5003206;28;20053;-61
2023/09/26 08:55:18;;;;;;;12.63;11.32;;;17.40;99.90;;;;;;5010988;28;20210;-61
2023/09/26 08:57:46;;;;;;;12.85;11.55;;;17.50;99.90;;;;;;5011093;28;20053;-62
2023/09/26 09:00:14;;;;;;;14.77;11.25;;;17.70;99.90;;;;;;5011305;28;20069;-61
2023/09/26 09:02:41;;;;;;;11.52;10.32;;;17.90;99.90;;;;;;5000161;28;20113;-62
2023/09/26 09:05:09;;;;;;;11.85;10.65;;;18.10;99.90;;;;;;4991233;28;20050;-61
2023/09/26 09:07:38;;;;;;;12.90;10.07;;;18.30;99.90;;;;;;4991525;28;20229;-61
2023/09/26 09:10:10;;;;;;;13.75;10.75;;;18.60;99.90;;;;;;4990983;28;20061;-62
2023/09/26 09:12:42;;;;;;;12.77;8.80;;;18.80;99.90;;;;;;5001220;28;20426;-62
2023/09/26 09:15:15;;;;;;;11.93;10.23;;;19.00;99.90;;;;;;5010862;28;20123;-63
2023/09/26 09:17:52;;;;;;;11.68;8.45;;;19.20;99.90;;;;;;5010644;28;20390;-62
2023/09/26 09:20:30;;;;;;;11.63;9.07;;;19.40;99.90;;;;;;5010052;28;20483;-63
2023/09/26 09:23:04;;;;;;;10.45;9.35;;;19.50;99.90;;;;;;4964132;28;20065;-62
2023/09/26 09:25:35;;;;;;;11.90;9.82;;;19.50;99.90;;;;;;4990734;28;20046;-62
2023/09/26 09:28:04;;;;;;;12.27;10.63;;;19.70;99.90;;;;;;4990468;28;20042;-62
2023/09/26 09:30:37;;;;;;;13.88;10.35;;;19.70;99.90;;;;;;4991160;28;20046;-62
2023/09/26 09:33:05;;;;;;;11.82;9.48;;;19.80;99.90;;;;;;5004543;28;20056;-63
2023/09/26 09:35:32;;;;;;;11.52;9.57;;;19.80;99.90;;;;;;5010282;28;20054;-62
2023/09/26 09:37:58;;;;;;;9.98;8.93;;;19.80;99.90;;;;;;5009946;28;20505;-62
2023/09/26 09:40:25;;;;;;;11.82;10.15;;;19.80;99.90;;;;;;5010119;28;20486;-62
2023/09/26 09:42:55;;;;;;;10.93;8.43;;;19.80;99.90;;;;;;4998123;28;20375;-62
2023/09/26 09:45:21;;;;;;;10.05;9.00;;;19.90;99.90;;;;;;4990325;28;20420;-63
2023/09/26 09:47:48;;;;;;;11.48;9.40;;;19.90;99.90;;;;;;4990904;28;20415;-62
2023/09/26 09:50:16;;;;;;;11.52;9.95;;;19.90;99.90;;;;;;4990296;28;20053;-63
2023/09/26 09:52:44;;;;;;;13.95;11.10;;;19.80;99.90;;;;;;5001331;28;20582;-61
2023/09/26 09:55:19;;;;;;;12.10;10.90;;;19.80;99.90;;;;;;5009983;28;20336;-62
2023/09/26 09:57:51;;;;;;;11.63;10.15;;;19.70;99.90;;;;;;5010260;28;20128;-62
2023/09/26 10:00:19;;;;;;;11.38;10.25;;;19.80;99.90;;;;;;5010010;28;20056;-62
2023/09/26 10:02:46;;;;;;;14.35;10.63;;;19.80;99.90;;;;;;4965291;28;20047;-62
2023/09/26 10:05:17;;;;;;;11.60;9.85;;;19.70;99.90;;;;;;4990573;28;20057;-62
2023/09/26 10:07:48;;;;;;;13.32;9.93;;;19.70;99.90;;;;;;4990511;28;20046;-62
2023/09/26 10:10:16;;;;;;;10.45;9.35;;;19.70;99.90;;;;;;4989888;28;20467;-62
2023/09/26 10:12:44;;;;;;;10.48;8.60;;;19.80;99.90;;;;;;5000313;28;20373;-62
2023/09/26 10:15:11;;;;;;;10.65;9.60;;;19.90;99.90;;;;;;4992470;28;20058;-62
2023/09/26 10:17:41;;;;;;;11.18;9.98;;;20.00;99.90;;;;;;5009700;28;20058;-62
2023/09/26 10:20:14;;;;;;;11.48;9.50;;;20.00;99.90;;;;;;5009631;28;20061;-62
2023/09/26 10:22:43;;;;;;;14.10;9.40;;;20.10;99.90;;;;;;4999421;28;20058;-61
2023/09/26 10:25:23;;;;;;;11.95;9.73;;;20.10;99.90;;;;;;4990055;28;20053;-62
2023/09/26 10:27:51;;;;;;;10.98;9.43;;;20.20;99.90;;;;;;4990481;28;20076;-63
2023/09/26 10:30:18;;;;;;;12.07;10.18;;;20.30;99.90;;;;;;5006057;28;20343;-62
2023/09/26 10:32:45;;;;;;;12.30;9.43;;;20.30;99.90;;;;;;4999161;28;20046;-62
2023/09/26 10:35:15;;;;;;;11.68;10.27;;;20.30;99.90;;;;;;4990266;28;20054;-61
2023/09/26 10:37:44;;;;;;;11.13;9.95;;;20.40;99.90;;;;;;4994930;28;20064;-62
2023/09/26 10:40:12;;;;;;;13.80;9.55;;;20.40;99.90;;;;;;5009329;28;20068;-62
2023/09/26 10:42:45;;;;;;;13.30;8.50;;;20.50;99.90;;;;;;4999510;28;20379;-62
2023/09/26 10:45:12;;;;;;;11.07;9.80;;;20.60;99.90;;;;;;4990174;28;20047;-63
2023/09/26 10:47:40;;;;;;;12.15;9.30;;;20.60;99.90;;;;;;4990130;28;20056;-61
2023/09/26 10:50:13;;;;;;;11.68;9.50;;;20.70;99.90;;;;;;4989750;28;20057;-62
2023/09/26 10:52:49;;;;;;;10.77;9.30;;;20.70;99.90;;;;;;4999818;28;20046;-61
2023/09/26 10:55:17;;;;;;;12.98;9.55;;;20.70;99.90;;;;;;4991915;28;20057;-63
2023/09/26 10:57:44;;;;;;;11.23;9.75;;;20.70;99.90;;;;;;5009744;28;20050;-62
2023/09/26 11:00:13;;;;;;;11.10;10.00;;;20.70;99.90;;;;;;5009391;28;20073;-63
2023/09/26 11:02:41;;;;;;;10.45;9.40;;;20.70;99.90;;;;;;4999520;28;20464;-63
2023/09/26 11:05:09;;;;;;;11.52;10.02;;;20.70;99.90;;;;;;4989788;28;20054;-62
2023/09/26 11:07:37;;;;;;;12.35;10.18;;;20.70;99.90;;;;;;4989837;28;20295;-61
2023/09/26 11:10:04;;;;;;;12.00;9.93;;;20.60;99.90;;;;;;4989507;28;20348;-62
2023/09/26 11:12:31;;;;;;;11.23;9.23;;;20.60;99.90;;;;;;4997959;28;20390;-62
2023/09/26 11:14:59;;;;;;;12.02;9.93;;;20.60;99.90;;;;;;4993061;28;20053;-62
2023/09/26 11:17:27;;;;;;;10.90;9.70;;;20.70;99.90;;;;;;4995470;28;20070;-63
2023/09/26 11:19:58;;;;;;;11.50;10.02;;;20.70;99.90;;;;;;5012349;28;20077;-62
2023/09/26 11:22:27;;;;;;;12.05;10.75;;;20.80;99.90;;;;;;5005127;28;20050;-60
2023/09/26 11:25:06;;;;;;;11.43;10.23;;;20.80;99.90;;;;;;4993328;28;20071;-63
2023/09/26 11:27:41;;;;;;;11.18;9.93;;;20.80;99.90;;;;;;4976103;28;20058;-62
2023/09/26 11:30:10;;;;;;;11.55;10.35;;;20.90;99.90;;;;;;4992614;28;20090;-62
2023/09/26 11:32:36;;;;;;;12.07;9.77;;;20.90;99.90;;;;;;5001931;28;20107;-63
2023/09/26 11:35:04;;;;;;;11.75;9.63;;;21.00;99.90;;;;;;5012713;28;20355;-63
2023/09/26 11:37:31;;;;;;;12.23;9.55;;;21.00;99.90;;;;;;5012132;28;20791;-63
2023/09/26 11:39:57;;;;;;;12.30;11.10;;;21.00;99.90;;;;;;5011893;28;20541;-61
2023/09/26 11:42:23;;;;;;;12.55;10.07;;;21.00;99.90;;;;;;5004972;28;20050;-61
2023/09/26 11:44:56;;;;;;;12.20;10.35;;;21.10;99.90;;;;;;4992758;28;20173;-62
2023/09/26 11:47:27;;;;;;;11.75;10.60;;;21.20;99.90;;;;;;4975218;28;20046;-61
2023/09/26 11:49:55;;;;;;;11.35;9.43;;;21.30;99.90;;;;;;4992316;28;20112;-61
2023/09/26 11:52:22;;;;;;;10.38;9.38;;;21.40;99.90;;;;;;4999374;28;20045;-61
2023/09/26 11:54:50;;;;;;;11.75;9.93;;;21.40;99.90;;;;;;4994894;28;20057;-61
2023/09/26 11:57:18;;;;;;;10.70;9.52;;;21.50;99.90;;;;;;5012144;28;20049;-60
2023/09/26 11:59:44;;;;;;;11.98;10.77;;;21.60;99.90;;;;;;5012303;28;20050;-61
2023/09/26 12:02:11;;;;;;;10.52;9.48;;;21.60;99.90;;;;;;5006754;28;20046;-61
2023/09/26 12:04:39;;;;;;;11.75;10.40;;;21.60;99.90;;;;;;4992567;28;20057;-63
2023/09/26 12:07:05;;;;;;;10.48;9.15;;;21.70;99.90;;;;;;4992471;28;20055;-61
2023/09/26 12:09:33;;;;;;;12.18;9.68;;;21.70;99.90;;;;;;4991996;28;20054;-62
2023/09/26 12:11:59;;;;;;;11.55;10.00;;;21.70;99.90;;;;;;4996341;28;20041;-61
2023/09/26 12:14:25;;;;;;;11.82;9.07;;;21.60;99.90;;;;;;5011548;28;20426;-62
2023/09/26 12:16:52;;;;;;;11.95;9.80;;;21.50;99.90;;;;;;5011960;28;20046;-62
2023/09/26 12:19:19;;;;;;;10.50;9.40;;;21.50;99.90;;;;;;5006387;28;20042;-62
2023/09/26 12:21:46;;;;;;;10.25;8.85;;;21.60;99.90;;;;;;4993885;28;20042;-61
2023/09/26 12:24:14;;;;;;;10.57;9.48;;;21.60;99.90;;;;;;5011727;28;20057;-61
2023/09/26 12:26:41;;;;;;;11.55;8.80;;;21.60;99.90;;;;;;5010937;28;20056;-61
2023/09/26 12:29:09;;;;;;;10.90;8.50;;;21.70;99.90;;;;;;5011292;28;20058;-62
2023/09/26 12:31:35;;;;;;;9.40;8.07;;;21.80;99.90;;;;;;5010711;28;20382;-61
2023/09/26 12:34:02;;;;;;;11.52;9.02;;;21.90;99.90;;;;;;4991934;28;20050;-61